Time;durP1;ratioP1;P1;durP2;ratioP2;P2;SDS_P1;SDS_P2;PMS_P1;PMS_P2;Temp;Humidity;BMP_temperature;BMP_pressure;BME280_temperature;BME280_humidity;BME280_pressure;Samples;Min_cycle;Max_cycle;Signal;HPM_P1;HPM_P2
2021/11/01 00:02:00;;;;;;;31.37;15.40;;;14.10;99.90;;;;;;5069338;28;20215;-72
2021/11/01 00:04:26;;;;;;;32.90;14.40;;;14.10;99.90;;;;;;5067846;28;20453;-71
2021/11/01 00:06:52;;;;;;;44.63;18.67;;;14.10;99.90;;;;;;5085535;28;20468;-71
2021/11/01 00:09:17;;;;;;;31.00;13.60;;;14.10;99.90;;;;;;5050573;28;20223;-72
2021/11/01 00:11:43;;;;;;;17.80;10.30;;;14.10;99.90;;;;;;5068219;28;20219;-71
2021/11/01 00:14:09;;;;;;;25.07;10.27;;;14.10;99.90;;;;;;5046842;28;20717;-73
2021/11/01 00:16:35;;;;;;;12.40;6.30;;;14.10;99.90;;;;;;5067136;28;20827;-73
2021/11/01 00:19:00;;;;;;;9.87;5.30;;;14.00;99.90;;;;;;5068795;28;20496;-71
2021/11/01 00:21:26;;;;;;;17.80;9.20;;;14.00;99.90;;;;;;5067439;28;20298;-71
2021/11/01 00:23:52;;;;;;;16.50;7.80;;;13.90;99.90;;;;;;5067705;28;20226;-71
2021/11/01 00:26:18;;;;;;;17.87;8.23;;;13.80;99.90;;;;;;5050322;28;20227;-72
2021/11/01 00:28:44;;;;;;;15.20;6.13;;;13.80;99.90;;;;;;5067676;28;20457;-72
2021/11/01 00:31:11;;;;;;;8.20;5.13;;;13.80;99.90;;;;;;5066667;28;20489;-71
2021/11/01 00:33:37;;;;;;;6.70;4.10;;;13.70;99.90;;;;;;5052099;28;20874;-71
2021/11/01 00:36:04;;;;;;;13.23;5.57;;;13.70;99.90;;;;;;5080143;28;20900;-71
2021/11/01 00:38:30;;;;;;;19.73;8.13;;;13.70;99.90;;;;;;5081542;28;20848;-72
2021/11/01 00:40:56;;;;;;;34.30;12.50;;;13.70;99.90;;;;;;5068417;28;20458;-72
2021/11/01 00:43:22;;;;;;;33.60;13.83;;;13.70;99.90;;;;;;5048511;28;20219;-69
2021/11/01 00:45:48;;;;;;;34.53;13.90;;;13.60;99.90;;;;;;5080379;28;20290;-71
2021/11/01 00:48:14;;;;;;;24.40;8.93;;;13.60;99.90;;;;;;5057650;28;20453;-71
2021/11/01 00:50:41;;;;;;;35.13;11.03;;;13.50;99.90;;;;;;5068713;28;20503;-71
2021/11/01 00:53:07;;;;;;;31.30;10.87;;;13.50;99.90;;;;;;5086368;28;20635;-72
2021/11/01 00:55:47;;;;;;;33.17;11.07;;;13.40;99.90;;;;;;5074286;28;20985;-71
2021/11/01 00:58:13;;;;;;;28.50;9.60;;;13.30;99.90;;;;;;5049602;28;20479;-71
2021/11/01 01:00:39;;;;;;;25.83;8.50;;;13.30;99.90;;;;;;5057259;28;20442;-71
2021/11/01 01:03:04;;;;;;;21.80;8.70;;;13.20;99.90;;;;;;5084596;28;20585;-72
2021/11/01 01:05:30;;;;;;;19.20;7.57;;;13.20;99.90;;;;;;5075856;28;20227;-73
2021/11/01 01:07:56;;;;;;;21.00;8.33;;;13.10;99.90;;;;;;5049779;28;20302;-72
2021/11/01 01:10:22;;;;;;;11.77;5.07;;;13.10;99.90;;;;;;5058136;28;20218;-72
2021/11/01 01:12:47;;;;;;;7.07;2.87;;;13.10;99.90;;;;;;5071420;28;20711;-72
2021/11/01 01:15:21;;;;;;;7.40;3.40;;;13.10;99.90;;;;;;5056469;28;20237;-71
2021/11/01 01:17:47;;;;;;;3.80;2.23;;;13.00;99.90;;;;;;5072662;28;20245;-71
2021/11/01 01:20:15;;;;;;;5.97;1.90;;;13.00;99.90;;;;;;5066745;28;20461;-72
2021/11/01 01:22:45;;;;;;;4.50;2.13;;;13.00;99.90;;;;;;5050671;28;20454;-71
2021/11/01 01:25:24;;;;;;;5.30;2.80;;;13.00;99.90;;;;;;5049500;28;20986;-70
2021/11/01 01:27:54;;;;;;;6.50;3.47;;;13.00;99.90;;;;;;5051187;28;20457;-71
2021/11/01 01:30:22;;;;;;;12.17;5.43;;;13.00;99.90;;;;;;5065969;28;20467;-72
2021/11/01 01:32:48;;;;;;;20.10;8.80;;;13.00;99.90;;;;;;5068653;28;20458;-71
2021/11/01 01:35:14;;;;;;;17.70;8.07;;;13.00;99.90;;;;;;5065400;28;20496;-71
2021/11/01 01:37:41;;;;;;;23.57;9.57;;;12.90;99.90;;;;;;5067191;28;20230;-71
2021/11/01 01:40:08;;;;;;;42.40;13.80;;;12.90;99.90;;;;;;5065938;28;20532;-72
2021/11/01 01:42:39;;;;;;;22.73;8.80;;;12.90;99.90;;;;;;5067129;28;20453;-72
2021/11/01 01:45:08;;;;;;;16.83;5.73;;;12.90;99.90;;;;;;5065961;28;20523;-71
2021/11/01 01:47:35;;;;;;;12.70;6.60;;;12.90;99.90;;;;;;5067363;28;20478;-72
2021/11/01 01:50:02;;;;;;;11.63;5.40;;;13.00;99.90;;;;;;5067366;28;20967;-72
2021/11/01 01:52:30;;;;;;;6.70;3.57;;;13.00;99.90;;;;;;5050071;28;20457;-71
2021/11/01 01:54:56;;;;;;;11.20;4.50;;;13.00;99.90;;;;;;5064256;28;20879;-72
2021/11/01 01:57:22;;;;;;;12.07;5.27;;;13.10;99.90;;;;;;5065330;28;21025;-72
2021/11/01 01:59:48;;;;;;;10.30;5.13;;;13.10;99.90;;;;;;5067264;28;20453;-72
2021/11/01 02:02:14;;;;;;;36.33;14.77;;;13.10;99.90;;;;;;5065578;28;20708;-71
2021/11/01 02:04:41;;;;;;;21.47;8.70;;;13.10;99.90;;;;;;5049974;28;20477;-71
2021/11/01 02:07:22;;;;;;;17.57;5.87;;;13.10;99.90;;;;;;5064982;28;20458;-72
2021/11/01 02:10:04;;;;;;;14.60;5.40;;;13.10;99.90;;;;;;5067065;28;20982;-72
2021/11/01 02:12:34;;;;;;;9.00;3.87;;;13.10;99.90;;;;;;5066555;28;20583;-74
2021/11/01 02:15:19;;;;;;;7.00;3.03;;;13.10;99.90;;;;;;5070261;28;20453;-72
2021/11/01 02:17:48;;;;;;;5.67;2.10;;;13.10;99.90;;;;;;5063216;28;20484;-73
2021/11/01 02:20:29;;;;;;;7.53;2.77;;;13.10;99.90;;;;;;5086120;28;20457;-72
2021/11/01 02:22:57;;;;;;;6.50;2.17;;;13.10;99.90;;;;;;5070441;28;20465;-72
2021/11/01 02:25:27;;;;;;;7.97;2.80;;;13.20;99.90;;;;;;5069374;28;20461;-72
2021/11/01 02:27:53;;;;;;;5.93;2.60;;;13.10;99.90;;;;;;5071179;28;21017;-73
2021/11/01 02:30:20;;;;;;;6.83;3.60;;;13.20;99.90;;;;;;5069400;28;20540;-72
2021/11/01 02:32:46;;;;;;;8.97;3.63;;;13.20;99.90;;;;;;5070371;28;20457;-72
2021/11/01 02:35:12;;;;;;;6.90;2.80;;;13.10;99.90;;;;;;5069297;28;20492;-72
2021/11/01 02:37:40;;;;;;;2.13;1.07;;;13.20;99.90;;;;;;5069869;28;21062;-72
2021/11/01 02:40:08;;;;;;;1.40;1.30;;;13.10;99.90;;;;;;5068492;28;20458;-72
2021/11/01 02:42:34;;;;;;;5.03;1.40;;;13.10;99.90;;;;;;5053637;28;20449;-72
2021/11/01 02:45:06;;;;;;;1.77;1.00;;;13.10;99.90;;;;;;5071862;28;20461;-73
2021/11/01 02:47:32;;;;;;;2.77;1.30;;;13.10;99.90;;;;;;5072021;28;20981;-72
2021/11/01 02:50:00;;;;;;;1.13;0.90;;;13.00;99.90;;;;;;5070751;28;20552;-72
2021/11/01 02:52:27;;;;;;;2.30;1.10;;;13.00;99.90;;;;;;5068310;28;20471;-71
2021/11/01 02:54:53;;;;;;;8.60;1.37;;;13.00;99.90;;;;;;5070128;28;21007;-72
2021/11/01 02:57:19;;;;;;;2.90;0.80;;;13.00;99.90;;;;;;5069036;28;20473;-72
2021/11/01 02:59:45;;;;;;;3.77;1.17;;;13.00;99.90;;;;;;5070750;28;20510;-71
2021/11/01 03:02:11;;;;;;;6.70;2.10;;;13.00;99.90;;;;;;5068786;28;20883;-72
2021/11/01 03:04:37;;;;;;;27.77;11.67;;;13.00;99.90;;;;;;5053503;28;20679;-72
2021/11/01 03:07:03;;;;;;;13.60;7.80;;;13.00;99.90;;;;;;5068301;28;20547;-73
2021/11/01 03:09:35;;;;;;;20.90;8.30;;;13.00;99.90;;;;;;5070072;28;20223;-72
2021/11/01 03:12:05;;;;;;;21.47;10.30;;;13.00;99.90;;;;;;5069743;28;20552;-73
2021/11/01 03:14:38;;;;;;;20.83;7.97;;;12.90;99.90;;;;;;5086333;28;20457;-72
2021/11/01 03:17:05;;;;;;;16.97;8.23;;;13.00;99.90;;;;;;5070107;28;20472;-74
2021/11/01 03:19:32;;;;;;;14.70;7.10;;;13.00;99.90;;;;;;5070018;28;21063;-71
2021/11/01 03:22:02;;;;;;;8.23;3.90;;;12.90;99.90;;;;;;5052136;28;20458;-72
2021/11/01 03:24:37;;;;;;;6.37;3.70;;;12.90;99.90;;;;;;5068750;28;20458;-73
2021/11/01 03:27:06;;;;;;;7.70;4.23;;;12.90;99.90;;;;;;5051960;28;20468;-72
2021/11/01 03:29:34;;;;;;;6.77;3.10;;;12.80;99.90;;;;;;5069970;28;20450;-70
2021/11/01 03:32:03;;;;;;;12.70;4.60;;;12.80;99.90;;;;;;5069442;28;20453;-72
2021/11/01 03:34:31;;;;;;;9.77;4.37;;;12.80;99.90;;;;;;5051654;28;20484;-72
2021/11/01 03:37:01;;;;;;;7.23;3.67;;;12.80;99.90;;;;;;5069362;28;20473;-72
2021/11/01 03:39:27;;;;;;;8.70;3.47;;;12.80;99.90;;;;;;5052079;28;20986;-72
2021/11/01 03:41:53;;;;;;;6.47;2.87;;;12.80;99.90;;;;;;5069130;28;20536;-72
2021/11/01 03:44:26;;;;;;;4.20;3.07;;;12.80;99.90;;;;;;5051275;28;20966;-72
2021/11/01 03:46:57;;;;;;;4.53;2.90;;;12.80;99.90;;;;;;5069269;28;20556;-72
2021/11/01 03:49:24;;;;;;;6.40;2.73;;;12.80;99.90;;;;;;5068071;28;20453;-73
2021/11/01 03:52:08;;;;;;;8.13;4.43;;;12.80;99.90;;;;;;5068710;28;20462;-72
2021/11/01 03:54:34;;;;;;;13.03;5.60;;;12.80;99.90;;;;;;5068842;28;20450;-72
2021/11/01 03:57:01;;;;;;;10.73;6.17;;;12.70;99.90;;;;;;5069094;28;20465;-73
2021/11/01 03:59:29;;;;;;;11.50;5.60;;;12.70;99.90;;;;;;5052596;28;20457;-73
2021/11/01 04:01:55;;;;;;;9.77;5.57;;;12.70;99.90;;;;;;5051171;28;20449;-73
2021/11/01 04:04:20;;;;;;;7.03;4.33;;;12.80;99.90;;;;;;5066632;28;21080;-72
2021/11/01 04:06:46;;;;;;;4.73;2.97;;;12.80;99.90;;;;;;5050181;28;20234;-71
2021/11/01 04:09:15;;;;;;;5.23;3.10;;;12.70;99.90;;;;;;5049796;28;20222;-73
2021/11/01 04:11:43;;;;;;;16.30;7.13;;;12.70;99.90;;;;;;5067943;28;20900;-72
2021/11/01 04:14:18;;;;;;;22.90;7.70;;;12.70;99.90;;;;;;5066332;28;20978;-73
2021/11/01 04:16:48;;;;;;;10.13;4.90;;;12.60;99.90;;;;;;5063966;28;20576;-72
2021/11/01 04:21:42;;;;;;;4.90;2.67;;;12.70;99.90;;;;;;5063405;28;20466;-74
2021/11/01 04:24:08;;;;;;;2.53;2.30;;;12.70;99.90;;;;;;5045317;28;20474;-72
2021/11/01 04:26:34;;;;;;;7.50;2.80;;;12.70;99.90;;;;;;5065876;28;20461;-72
2021/11/01 04:29:04;;;;;;;7.23;2.73;;;12.70;99.90;;;;;;5064587;28;20541;-73
2021/11/01 04:31:33;;;;;;;5.60;3.23;;;12.70;99.90;;;;;;5065228;28;20215;-72
2021/11/01 04:34:11;;;;;;;11.53;2.73;;;12.70;99.90;;;;;;5066390;28;20544;-71
2021/11/01 04:36:38;;;;;;;4.40;2.53;;;12.70;99.90;;;;;;5066806;28;20480;-73
2021/11/01 04:40:12;;;;;;;3.00;1.53;;;12.60;99.90;;;;;;5066940;28;20449;-72
2021/11/01 04:53:09;;;;;;;4.37;3.43;;;12.60;99.90;;;;;;5069180;28;20974;-72
2021/11/01 04:55:36;;;;;;;6.53;2.83;;;12.60;99.90;;;;;;5068051;28;20469;-74
2021/11/01 04:58:02;;;;;;;5.30;2.57;;;12.60;99.90;;;;;;5067987;28;20473;-72
2021/11/01 05:00:28;;;;;;;5.47;3.00;;;12.60;99.90;;;;;;5084174;28;20457;-72
2021/11/01 05:03:02;;;;;;;7.23;2.97;;;12.60;99.90;;;;;;5068116;28;20461;-72
2021/11/01 05:05:27;;;;;;;9.07;3.90;;;12.50;99.90;;;;;;5067249;28;20257;-70
2021/11/01 05:07:54;;;;;;;7.47;3.20;;;12.50;99.90;;;;;;5067514;28;20466;-72
2021/11/01 05:10:27;;;;;;;5.33;2.40;;;12.50;99.90;;;;;;5066220;28;20226;-72
2021/11/01 05:12:53;;;;;;;4.03;2.80;;;12.50;99.90;;;;;;5066836;28;20461;-72
2021/11/01 05:18:00;;;;;;;3.00;1.60;;;12.50;99.90;;;;;;5084730;28;20473;-72
2021/11/01 05:20:36;;;;;;;;;;;;;;;;;;;;;
2021/11/01 05:30:30;;;;;;;;;;;;;;;;;;;;;
2021/11/01 05:33:00;;;;;;;3.13;1.80;;;12.50;99.90;;;;;;5083275;28;20511;-72
2021/11/01 05:35:26;;;;;;;2.03;1.73;;;12.50;99.90;;;;;;5065761;28;20457;-71
2021/11/01 05:37:52;;;;;;;2.17;1.07;;;12.50;99.90;;;;;;5067056;28;20472;-73
2021/11/01 05:40:18;;;;;;;2.30;1.60;;;12.50;99.90;;;;;;5065745;28;20223;-73
2021/11/01 05:42:44;;;;;;;3.80;2.10;;;12.40;99.90;;;;;;5067155;28;20468;-72
2021/11/01 05:45:10;;;;;;;1.47;1.33;;;12.40;99.90;;;;;;5066065;28;20465;-72
2021/11/01 05:47:36;;;;;;;4.63;2.57;;;12.40;99.90;;;;;;5084369;28;20243;-72
2021/11/01 05:50:04;;;;;;;2.57;1.80;;;12.40;99.90;;;;;;5065424;28;20540;-73
2021/11/01 05:52:31;;;;;;;2.50;2.30;;;12.40;99.90;;;;;;5049675;28;20481;-72
2021/11/01 05:55:04;;;;;;;3.47;2.20;;;12.30;99.90;;;;;;5066231;28;20831;-73
2021/11/01 05:57:45;;;;;;;4.23;1.77;;;12.30;99.90;;;;;;5066820;28;20481;-69
2021/11/01 06:00:32;;;;;;;8.57;2.80;;;12.30;99.90;;;;;;5047268;28;20506;-72
2021/11/01 06:13:30;;;;;;;5.53;3.07;;;12.20;99.90;;;;;;5065603;28;21002;-72
2021/11/01 06:15:58;;;;;;;5.10;2.50;;;12.20;99.90;;;;;;5066277;28;20476;-73
2021/11/01 06:18:35;;;;;;;6.10;2.67;;;12.10;99.90;;;;;;5065242;28;20469;-73
2021/11/01 06:21:05;;;;;;;2.03;1.83;;;12.10;99.90;;;;;;5066222;28;20453;-72
2021/11/01 06:23:31;;;;;;;3.27;1.70;;;12.10;99.90;;;;;;5066430;28;20453;-72
2021/11/01 06:25:57;;;;;;;3.83;2.30;;;12.10;99.90;;;;;;5065063;28;20550;-72
2021/11/01 06:28:23;;;;;;;3.23;1.60;;;12.00;99.90;;;;;;5062321;28;20477;-71
2021/11/01 06:30:55;;;;;;;3.27;1.93;;;11.90;99.90;;;;;;5064236;28;20306;-72
2021/11/01 07:16:36;;;;;;;1.67;1.40;;;12.00;99.90;;;;;;5064667;28;20491;-72
2021/11/01 07:19:18;;;;;;;1.30;1.20;;;12.00;99.90;;;;;;5066690;28;20457;-73
2021/11/01 08:27:16;;;;;;;5.90;1.70;;;11.90;99.90;;;;;;5067926;28;20480;-71
2021/11/01 08:40:06;;;;;;;6.53;1.40;;;11.90;99.90;;;;;;5068560;28;20279;-72
2021/11/01 08:42:53;;;;;;;7.10;1.33;;;11.90;99.90;;;;;;5050838;28;20445;-73
2021/11/01 09:01:29;;;;;;;2.57;1.10;;;11.90;99.90;;;;;;5061531;28;20482;-72
2021/11/01 09:20:06;;;;;;;4.20;1.50;;;12.00;99.90;;;;;;5069151;28;20476;-72
2021/11/01 09:27:54;;;;;;;4.23;1.40;;;12.00;99.90;;;;;;5067422;28;20461;-73
2021/11/01 09:41:10;;;;;;;1.73;1.53;;;12.00;99.90;;;;;;5048508;28;20450;-72
2021/11/01 09:43:37;;;;;;;3.57;1.43;;;11.90;99.90;;;;;;5063733;28;20462;-72
2021/11/01 09:46:07;;;;;;;6.90;1.53;;;12.00;99.90;;;;;;5048302;28;20474;-72
2021/11/01 09:48:33;;;;;;;3.73;1.53;;;12.00;99.90;;;;;;5066135;28;20995;-69
2021/11/01 09:50:58;;;;;;;5.53;1.60;;;12.00;99.90;;;;;;5060149;28;20480;-72
2021/11/01 09:53:36;;;;;;;3.40;1.80;;;12.00;99.90;;;;;;5073307;28;20210;-71
2021/11/01 10:01:22;;;;;;;4.27;1.80;;;12.00;99.90;;;;;;5063376;28;20536;-71
2021/11/01 10:03:51;;;;;;;4.97;1.23;;;12.10;99.90;;;;;;5046649;28;20466;-72
2021/11/01 10:06:21;;;;;;;9.40;2.63;;;12.10;99.90;;;;;;5054904;28;20457;-72
2021/11/01 10:09:01;;;;;;;3.40;1.50;;;12.10;99.90;;;;;;5082187;28;20997;-72
2021/11/01 10:11:33;;;;;;;1.47;1.27;;;12.20;99.90;;;;;;5057904;28;20461;-71
2021/11/01 10:14:06;;;;;;;3.90;1.93;;;12.20;99.90;;;;;;5058796;28;20542;-73
2021/11/01 10:19:26;;;;;;;6.27;1.90;;;12.30;99.90;;;;;;5068935;28;20448;-73
2021/11/01 10:21:55;;;;;;;5.60;2.70;;;12.30;99.90;;;;;;5068767;28;20460;-72
2021/11/01 10:24:39;;;;;;;3.90;1.77;;;12.40;99.90;;;;;;5060694;28;20464;-72
2021/11/01 10:27:14;;;;;;;3.50;2.13;;;12.40;99.90;;;;;;5079677;28;20503;-75
2021/11/01 10:29:57;;;;;;;3.70;1.50;;;12.40;99.90;;;;;;5060294;28;20464;-72
2021/11/01 10:32:31;;;;;;;3.93;1.40;;;12.40;99.90;;;;;;5063119;28;20484;-73
2021/11/01 10:35:20;;;;;;;2.77;1.17;;;12.40;99.90;;;;;;5064752;28;20465;-72
2021/11/01 10:38:10;;;;;;;9.77;1.40;;;12.40;99.90;;;;;;5063097;28;20470;-72
2021/11/01 10:40:44;;;;;;;5.10;2.03;;;12.40;99.90;;;;;;5049160;28;20450;-69
2021/11/01 10:43:25;;;;;;;4.77;1.43;;;12.40;99.90;;;;;;5050845;28;20453;-72
2021/11/01 11:13:28;;;;;;;8.30;1.77;;;12.90;99.90;;;;;;5066140;28;21000;-71
2021/11/01 11:15:56;;;;;;;3.10;1.50;;;12.90;99.90;;;;;;5054058;28;20477;-70
2021/11/01 11:39:30;;;;;;;2.37;1.40;;;13.00;99.90;;;;;;5068964;28;20464;-71
2021/11/01 11:47:43;;;;;;;5.23;1.67;;;13.10;99.90;;;;;;5069701;28;20514;-72
2021/11/01 11:50:14;;;;;;;3.73;1.87;;;13.10;99.90;;;;;;5067212;28;20458;-72
2021/11/01 11:52:40;;;;;;;5.40;1.80;;;13.10;99.90;;;;;;5067852;28;20538;-69
2021/11/01 11:55:18;;;;;;;5.63;2.00;;;13.10;99.90;;;;;;5065218;28;20504;-72
2021/11/01 11:57:53;;;;;;;8.50;1.80;;;13.10;99.90;;;;;;5068430;28;20241;-72
2021/11/01 12:00:19;;;;;;;8.10;2.00;;;13.10;99.90;;;;;;5066394;28;20457;-74
2021/11/01 12:02:49;;;;;;;2.10;1.33;;;13.10;99.90;;;;;;5051525;28;20472;-72
2021/11/01 12:05:27;;;;;;;1.50;1.30;;;13.10;99.90;;;;;;5048944;28;20252;-74
2021/11/01 12:08:12;;;;;;;2.20;1.37;;;13.10;99.90;;;;;;5068315;28;20469;-71
2021/11/01 12:18:56;;;;;;;6.83;2.03;;;13.10;99.90;;;;;;5053086;28;20480;-74
2021/11/01 12:21:22;;;;;;;2.40;1.33;;;13.10;99.90;;;;;;5066004;28;20526;-72
2021/11/01 12:23:50;;;;;;;2.50;1.47;;;13.10;99.90;;;;;;5066864;28;20876;-71
2021/11/01 12:26:20;;;;;;;5.20;1.43;;;13.10;99.90;;;;;;5064410;28;20507;-72
2021/11/01 12:28:51;;;;;;;4.40;1.30;;;13.10;99.90;;;;;;5084363;28;20460;-72
2021/11/01 12:31:17;;;;;;;2.83;1.57;;;13.20;99.90;;;;;;5050297;28;20462;-72
2021/11/01 12:34:04;;;;;;;5.50;1.50;;;13.20;99.90;;;;;;5067898;28;20461;-71
2021/11/01 12:36:51;;;;;;;1.57;1.13;;;13.20;99.90;;;;;;5066128;28;20223;-69
2021/11/01 12:39:21;;;;;;;1.70;1.37;;;13.20;99.90;;;;;;5065792;28;20833;-72
2021/11/01 12:58:34;;;;;;;1.23;1.13;;;12.70;99.90;;;;;;5045059;28;20462;-72
2021/11/01 13:01:15;;;;;;;1.23;0.90;;;12.60;99.90;;;;;;5086716;28;20505;-71
2021/11/01 13:09:21;;;;;;;1.83;1.10;;;12.50;99.90;;;;;;5045122;28;20458;-71
2021/11/01 13:15:01;;;;;;;0.97;0.87;;;12.40;99.90;;;;;;5060799;28;20556;-72
2021/11/01 13:20:21;;;;;;;0.80;0.80;;;12.30;99.90;;;;;;5065925;28;20476;-73
2021/11/01 13:22:52;;;;;;;0.57;0.57;;;12.30;99.90;;;;;;5061308;28;20466;-72
2021/11/01 13:35:55;;;;;;;0.70;0.57;;;12.20;99.90;;;;;;5045716;28;20470;-72
2021/11/01 13:38:30;;;;;;;1.20;0.80;;;12.20;99.90;;;;;;5044339;28;20521;-73
2021/11/01 13:40:56;;;;;;;0.70;0.60;;;12.30;99.90;;;;;;5063190;28;20492;-71
2021/11/01 13:43:27;;;;;;;0.53;0.53;;;12.30;99.90;;;;;;5047379;28;20489;-72
2021/11/01 13:45:54;;;;;;;0.60;0.60;;;12.30;99.90;;;;;;5046248;28;21061;-72
2021/11/01 13:48:31;;;;;;;4.60;0.97;;;12.30;99.90;;;;;;5062055;28;20825;-72
2021/11/01 13:51:02;;;;;;;0.60;0.50;;;12.30;99.90;;;;;;5042728;28;20466;-72
2021/11/01 13:53:30;;;;;;;2.27;1.00;;;12.30;99.90;;;;;;5061108;28;20617;-71
2021/11/01 13:56:17;;;;;;;1.30;1.00;;;12.30;99.90;;;;;;5045488;28;20472;-72
2021/11/01 13:58:54;;;;;;;3.87;1.50;;;12.40;99.90;;;;;;5029405;28;20561;-72
2021/11/01 14:01:39;;;;;;;2.00;1.03;;;12.40;99.90;;;;;;5045345;28;20537;-72
2021/11/01 14:15:18;;;;;;;10.77;6.87;;;12.60;99.90;;;;;;5054137;28;20458;-72
2021/11/01 14:31:05;;;;;;;9.33;5.97;;;12.80;99.90;;;;;;5053461;28;20490;-72
2021/11/01 15:24:23;;;;;;;17.43;10.90;;;12.60;99.90;;;;;;5069579;28;20841;-72
2021/11/01 15:30:55;;;;;;;14.17;11.53;;;12.60;99.90;;;;;;5066313;28;20468;-72
2021/11/01 16:16:38;;;;;;;2.80;2.47;;;12.50;99.90;;;;;;5068349;28;20450;-72
2021/11/01 16:19:04;;;;;;;3.07;2.77;;;12.40;99.90;;;;;;5068625;28;20932;-72
2021/11/01 16:21:31;;;;;;;5.17;2.50;;;12.40;99.90;;;;;;5060972;28;20462;-72
2021/11/01 16:23:57;;;;;;;2.60;2.33;;;12.40;99.90;;;;;;5067985;28;20453;-71
2021/11/01 16:26:27;;;;;;;2.33;2.00;;;12.30;99.90;;;;;;5066983;28;20457;-72
2021/11/01 16:29:02;;;;;;;3.33;2.53;;;12.30;99.90;;;;;;5083944;28;20322;-72
2021/11/01 16:31:34;;;;;;;3.13;2.20;;;12.30;99.90;;;;;;5053731;28;20449;-72
2021/11/01 16:34:12;;;;;;;5.47;4.60;;;12.30;99.90;;;;;;5067524;28;20445;-73
2021/11/01 16:39:12;;;;;;;5.90;3.97;;;12.20;99.90;;;;;;5082503;28;20456;-72
2021/11/01 16:41:41;;;;;;;3.00;2.67;;;12.20;99.90;;;;;;5066978;28;20446;-70
2021/11/01 16:44:15;;;;;;;3.07;2.77;;;12.20;99.90;;;;;;5090501;28;20544;-72
2021/11/01 16:46:47;;;;;;;5.73;4.57;;;12.20;99.90;;;;;;5059657;28;20511;-72
2021/11/01 16:49:19;;;;;;;10.53;7.37;;;12.20;99.90;;;;;;5067387;28;20450;-71
2021/11/01 16:51:46;;;;;;;17.10;10.60;;;12.20;99.90;;;;;;5081749;28;20456;-73
2021/11/01 16:54:16;;;;;;;11.97;7.50;;;12.20;99.90;;;;;;5051339;28;20489;-72
2021/11/01 16:59:44;;;;;;;7.23;4.47;;;12.00;99.90;;;;;;5067380;28;20477;-72
2021/11/01 17:04:55;;;;;;;3.50;3.10;;;11.90;99.90;;;;;;5066702;28;20493;-72
2021/11/01 17:24:05;;;;;;;10.37;6.97;;;11.60;99.90;;;;;;5065044;28;20450;-70
2021/11/01 17:35:12;;;;;;;6.00;5.13;;;11.40;99.90;;;;;;5044813;28;20470;-71
2021/11/01 18:41:01;;;;;;;;;;;;;;;;;;;;;
2021/11/01 18:51:39;;;;;;;4.37;3.80;;;10.50;99.90;;;;;;5079216;28;20548;-72
2021/11/01 18:54:15;;;;;;;4.70;3.73;;;10.40;99.90;;;;;;5065559;28;20499;-72
2021/11/01 18:56:42;;;;;;;4.30;2.70;;;10.40;99.90;;;;;;5083155;28;20871;-72
2021/11/01 18:59:10;;;;;;;2.50;2.30;;;10.40;99.90;;;;;;5069659;28;20449;-72
2021/11/01 19:01:38;;;;;;;3.47;3.17;;;10.50;99.90;;;;;;5067891;28;20485;-72
2021/11/01 19:04:12;;;;;;;3.60;3.10;;;10.50;99.90;;;;;;5069237;28;20502;-71
2021/11/01 19:06:46;;;;;;;3.97;2.30;;;10.40;99.90;;;;;;5051632;28;20476;-71
2021/11/01 19:17:59;;;;;;;10.13;7.03;;;10.40;99.90;;;;;;5069392;28;20460;-71
2021/11/01 20:08:13;;;;;;;4.97;4.50;;;9.90;99.90;;;;;;5046544;28;20477;-71
2021/11/01 21:26:18;;;;;;;6.33;3.30;;;9.60;99.90;;;;;;5066777;28;20482;-72
2021/11/01 21:28:44;;;;;;;4.37;3.10;;;9.50;99.90;;;;;;5055313;28;20458;-71
2021/11/01 21:31:10;;;;;;;4.73;3.43;;;9.50;99.90;;;;;;5044992;28;20533;-72
2021/11/01 21:33:36;;;;;;;9.70;4.53;;;9.50;99.90;;;;;;5060923;28;20223;-71
2021/11/01 21:36:07;;;;;;;4.80;3.63;;;9.40;99.90;;;;;;5069831;28;20254;-72
2021/11/01 21:38:33;;;;;;;5.53;3.03;;;9.40;99.90;;;;;;5028154;28;20227;-71
2021/11/01 21:40:59;;;;;;;4.13;3.13;;;9.40;99.90;;;;;;5046280;28;21048;-72
2021/11/01 21:43:25;;;;;;;5.30;3.50;;;9.30;99.90;;;;;;5051019;28;20486;-70
2021/11/01 21:45:51;;;;;;;8.87;3.90;;;9.30;99.90;;;;;;5070847;28;20363;-72
2021/11/01 21:48:17;;;;;;;6.93;3.40;;;9.30;99.90;;;;;;5045189;28;20983;-71
2021/11/01 21:50:45;;;;;;;4.47;3.20;;;9.30;99.90;;;;;;5030757;28;20594;-73
2021/11/01 21:53:15;;;;;;;7.33;3.90;;;9.30;99.90;;;;;;5048255;28;20219;-72
2021/11/01 21:55:41;;;;;;;3.70;3.37;;;9.30;99.90;;;;;;5045429;28;20497;-72
2021/11/01 21:58:32;;;;;;;5.40;3.10;;;9.30;99.90;;;;;;5044988;28;20465;-71
2021/11/01 22:20:06;;;;;;;5.60;3.23;;;9.00;99.90;;;;;;5060834;28;20909;-72
2021/11/01 22:22:44;;;;;;;2.37;2.17;;;8.90;99.90;;;;;;5043609;28;20491;-72
2021/11/01 22:25:21;;;;;;;2.50;1.90;;;9.00;99.90;;;;;;5062397;28;20461;-72
2021/11/01 22:57:09;;;;;;;11.67;7.47;;;9.00;99.90;;;;;;5053766;28;20570;-72
2021/11/01 22:59:35;;;;;;;14.83;7.40;;;8.90;99.90;;;;;;5045879;28;20462;-71
2021/11/01 23:02:01;;;;;;;12.07;5.90;;;8.90;99.90;;;;;;5047034;28;20537;-72
2021/11/01 23:04:52;;;;;;;10.20;4.63;;;8.90;99.90;;;;;;5029817;28;20516;-71
2021/11/01 23:31:52;;;;;;;21.30;10.10;;;8.50;99.90;;;;;;5048235;28;20460;-73
2021/11/01 23:34:18;;;;;;;20.03;10.87;;;8.50;99.90;;;;;;5029956;28;20473;-72
2021/11/01 23:36:45;;;;;;;22.67;11.43;;;8.50;99.90;;;;;;5028898;28;20306;-72
2021/11/01 23:39:13;;;;;;;19.87;9.00;;;8.50;99.90;;;;;;5046722;28;20544;-72
2021/11/01 23:41:43;;;;;;;14.13;7.37;;;8.50;99.90;;;;;;5044465;28;20832;-72
2021/11/01 23:44:09;;;;;;;13.37;7.50;;;8.50;99.90;;;;;;5050891;28;20470;-71
2021/11/01 23:46:35;;;;;;;7.90;4.50;;;8.50;99.90;;;;;;5053772;28;20473;-71
2021/11/01 23:49:02;;;;;;;8.13;3.83;;;8.50;99.90;;;;;;5046336;28;20223;-71
2021/11/01 23:51:30;;;;;;;5.50;3.87;;;8.50;99.90;;;;;;5073839;28;20215;-73
2021/11/01 23:56:42;;;;;;;5.53;4.23;;;8.50;99.90;;;;;;5052613;28;20462;-71
2021/11/01 23:59:08;;;;;;;6.70;4.43;;;8.50;99.90;;;;;;5080802;28;20534;-71
